Aniak, AK

10:00 PM AKDT on May 23, 2015 (GMT -0800)
Sparrevohn | | Change Station
CLOSE
Current Station
Airport
Location: Sparrevohn,
Elevation: 1588 ft
Nearby Weather Stations

Elev 1588 ft 61.10 °N, 155.57 °W | Updated 1 hour ago

Mostly Cloudy
Mostly Cloudy
48 °F
Feels Like 48 °F
N
10
Wind Variable Wind from SW

Today
High -- | Low -- °F
--% Chance of Precip.
Yesterday
High -- | Low -- °F
Precip. -- in
5:28 AM 11:42 PM
Waxing Crescent, 36% visible
Pressure 29.91 in
Visibility 10.0 miles
Clouds Few 4700 ft
Scattered Clouds 9000 ft
Mostly Cloudy 12000 ft
Dew Point 33 °F
Humidity 56%
Rainfall 0.07 in
Snow Depth Not available.
UV 0 out of 12
Pollen Not available.
Air Quality Not available.
Flu Activity Local Activity
METAR PASV 240455Z AUTO 22009KT 10SM FEW047 SCT090 BKN120 09/01 A2989 RMK AO2 SLP127 T00910008

More Conditions Fewer Conditions

Pressure 29.91 in
Visibility 10.0 miles
Clouds Few 4700 ft
Scattered Clouds 9000 ft
Mostly Cloudy 12000 ft
Dew Point 33 °F
Humidity 56%
Rainfall 0.07 in
Snow Depth Not available.
UV 0 out of 12
Pollen Not available.
Air Quality Not available.
Flu Activity Local Activity
METAR PASV 240455Z AUTO 22009KT 10SM FEW047 SCT090 BKN120 09/01 A2989 RMK AO2 SLP127 T00910008

More Conditions Fewer Conditions

10-Day Weather Forecast

Almanac

Astronomy

May. 23, 2015 Rise Set
Actual Time
Civil Twilight
Nautical Twilight
Astronomical Twilight
Moon
Length of Visible Light
Length of Day
Tomorrow will be .
, % of the Moon is Illuminated

Today's Extremes

State Highs State Lows

Community

WunderPhotos

Upload Photos

1,823,694 photos uploaded!

WunderBlogs® & News

Nearby

Air Quality

  Air Quality AQ Index Pollutant
Not available.

Snow Depth

Station Depth Elevation

Earthquake Activity

City Distance Mag. Time & Date
Minimum magnitude displayed is 2.5.

Coastal Water Temperatures

Place Temperature

Stations

Nearby Weather Stations

Station Location Temp. Windchill Dew Point Humidity Wind Precip. Elev Updated Type